Time;durP1;ratioP1;P1;durP2;ratioP2;P2;SDS_P1;SDS_P2;PMS_P1;PMS_P2;Temp;Humidity;BMP_temperature;BMP_pressure;BME280_temperature;BME280_humidity;BME280_pressure;Samples;Min_cycle;Max_cycle;Signal;HPM_P1;HPM_P2
2023/08/27 00:01:32;;;;;;;13.83;9.30;;;17.80;86.00;;;;;;5005888;28;20227;-73
2023/08/27 00:03:59;;;;;;;16.57;10.57;;;17.90;86.20;;;;;;5020093;28;20418;-74
2023/08/27 00:06:25;;;;;;;19.37;10.40;;;17.90;86.00;;;;;;5010886;28;20920;-74
2023/08/27 00:08:51;;;;;;;17.10;10.40;;;17.90;86.20;;;;;;5020556;28;20430;-72
2023/08/27 00:11:22;;;;;;;18.40;9.03;;;17.90;86.30;;;;;;5003565;28;20202;-73
2023/08/27 00:13:51;;;;;;;15.73;10.17;;;17.90;86.30;;;;;;5011830;28;20732;-72
2023/08/27 00:16:22;;;;;;;21.40;10.30;;;18.00;86.20;;;;;;5011196;28;20427;-72
2023/08/27 00:18:48;;;;;;;14.93;8.63;;;17.90;86.00;;;;;;5014746;28;20456;-70
2023/08/27 00:21:13;;;;;;;15.80;9.67;;;17.90;85.90;;;;;;5004418;28;20519;-73
2023/08/27 00:23:40;;;;;;;15.43;9.00;;;18.00;85.90;;;;;;5012702;28;20186;-73
2023/08/27 00:26:06;;;;;;;15.53;9.60;;;17.90;86.00;;;;;;5023242;28;20241;-72
2023/08/27 00:28:31;;;;;;;16.80;9.50;;;18.00;86.00;;;;;;5030554;28;20432;-73
2023/08/27 00:31:04;;;;;;;14.40;9.10;;;18.00;86.00;;;;;;5014030;28;20538;-73
2023/08/27 00:33:30;;;;;;;17.50;10.87;;;17.90;86.00;;;;;;5011857;28;20203;-72
2023/08/27 00:35:56;;;;;;;18.63;10.87;;;17.90;86.00;;;;;;5009180;28;20551;-74
2023/08/27 00:38:21;;;;;;;17.97;10.43;;;17.80;86.00;;;;;;5012970;28;20540;-73
2023/08/27 00:40:47;;;;;;;16.70;11.00;;;17.80;86.30;;;;;;5002006;28;20218;-73
2023/08/27 00:43:13;;;;;;;17.20;10.70;;;17.90;86.30;;;;;;5014016;28;20187;-73
2023/08/27 00:45:39;;;;;;;23.50;13.63;;;17.90;86.00;;;;;;5017119;28;20256;-73
2023/08/27 00:48:05;;;;;;;20.63;11.87;;;17.80;86.20;;;;;;5017881;28;20201;-70
2023/08/27 00:50:31;;;;;;;16.77;10.83;;;17.80;86.30;;;;;;5014904;28;20472;-73
2023/08/27 00:52:58;;;;;;;17.00;11.83;;;17.70;86.50;;;;;;5016434;28;20555;-73
2023/08/27 00:55:23;;;;;;;20.57;12.60;;;17.70;86.80;;;;;;5015987;28;20428;-73
2023/08/27 00:57:49;;;;;;;20.53;12.07;;;17.70;87.00;;;;;;5019274;28;20514;-71
2023/08/27 01:00:17;;;;;;;19.23;11.77;;;17.60;87.30;;;;;;5009153;28;20552;-72
2023/08/27 01:02:44;;;;;;;18.00;11.57;;;17.60;87.40;;;;;;5016113;28;20424;-72
2023/08/27 01:05:11;;;;;;;22.90;12.57;;;17.60;87.40;;;;;;5011444;28;20475;-72
2023/08/27 01:08:18;;;;;;;20.13;13.20;;;17.70;87.40;;;;;;5010789;28;20480;-73
2023/08/27 01:11:10;;;;;;;19.63;11.57;;;17.70;87.40;;;;;;4961292;28;20563;-73
2023/08/27 01:13:42;;;;;;;25.40;12.90;;;17.70;87.70;;;;;;4963300;28;20818;-71
2023/08/27 01:16:08;;;;;;;27.27;15.40;;;17.80;87.40;;;;;;4968277;28;21861;-72
2023/08/27 01:18:35;;;;;;;25.90;14.57;;;17.80;86.60;;;;;;4968485;28;21036;-72
2023/08/27 01:21:24;;;;;;;25.27;14.67;;;17.80;86.60;;;;;;4967340;28;20473;-72
2023/08/27 01:23:50;;;;;;;23.43;13.83;;;17.80;86.80;;;;;;4971424;28;20442;-73
2023/08/27 01:26:37;;;;;;;21.87;13.47;;;17.80;86.90;;;;;;4968998;28;20480;-72
2023/08/27 01:29:11;;;;;;;21.47;12.97;;;17.80;87.00;;;;;;4972200;28;20438;-72
2023/08/27 01:31:43;;;;;;;19.07;12.37;;;17.80;87.30;;;;;;4970003;28;20497;-72
2023/08/27 01:34:12;;;;;;;19.00;12.30;;;17.90;87.60;;;;;;4972184;28;20430;-73
2023/08/27 01:36:38;;;;;;;17.57;10.80;;;18.00;87.60;;;;;;4967428;28;20535;-73
2023/08/27 01:39:04;;;;;;;24.03;12.20;;;18.00;87.40;;;;;;4971836;28;21053;-72
2023/08/27 01:41:29;;;;;;;18.53;12.57;;;18.00;87.40;;;;;;4970106;28;20214;-73
2023/08/27 01:43:55;;;;;;;21.73;13.50;;;18.00;87.10;;;;;;4971988;28;20436;-72
2023/08/27 01:46:20;;;;;;;21.37;12.30;;;18.00;87.00;;;;;;4989658;28;20212;-71
2023/08/27 01:48:46;;;;;;;20.10;12.10;;;18.10;87.10;;;;;;5015330;28;20577;-71
2023/08/27 01:51:12;;;;;;;17.10;11.57;;;18.20;86.60;;;;;;5013340;28;20225;-72
2023/08/27 01:53:37;;;;;;;14.93;10.77;;;18.20;86.30;;;;;;5013639;28;20192;-72
2023/08/27 01:56:05;;;;;;;22.57;12.27;;;18.20;86.30;;;;;;5017482;28;20214;-72
2023/08/27 01:58:31;;;;;;;16.87;10.20;;;18.20;86.30;;;;;;5015019;28;20213;-71
2023/08/27 02:00:56;;;;;;;15.77;10.03;;;18.30;86.20;;;;;;5014278;28;21327;-72
2023/08/27 02:03:22;;;;;;;17.50;10.30;;;18.40;85.70;;;;;;5019953;28;20233;-73
2023/08/27 02:05:48;;;;;;;15.60;10.07;;;18.30;85.60;;;;;;5021313;28;20236;-72
2023/08/27 02:08:14;;;;;;;17.13;10.30;;;18.40;85.60;;;;;;5018345;28;20271;-72
2023/08/27 02:10:39;;;;;;;15.83;9.80;;;18.40;85.20;;;;;;5013371;28;20460;-73
2023/08/27 02:13:05;;;;;;;21.30;11.40;;;18.40;84.70;;;;;;5009852;28;20668;-72
2023/08/27 02:15:30;;;;;;;17.87;10.80;;;18.40;84.40;;;;;;5015414;28;20186;-72
2023/08/27 02:17:56;;;;;;;15.57;9.20;;;18.20;84.70;;;;;;5015406;28;20196;-72
2023/08/27 02:20:22;;;;;;;18.43;10.33;;;18.20;85.30;;;;;;5013648;28;20223;-71
2023/08/27 02:22:47;;;;;;;16.53;10.83;;;18.30;85.50;;;;;;5020428;28;20195;-72
2023/08/27 02:25:13;;;;;;;17.40;10.40;;;18.30;85.50;;;;;;5018240;28;20229;-72
2023/08/27 02:27:38;;;;;;;17.47;10.40;;;18.30;85.30;;;;;;5009154;28;20287;-72
2023/08/27 02:30:05;;;;;;;23.80;11.03;;;18.30;85.30;;;;;;5014442;28;20188;-72
2023/08/27 02:32:31;;;;;;;20.80;11.97;;;18.40;85.30;;;;;;5016841;28;20194;-71
2023/08/27 02:34:56;;;;;;;18.80;11.20;;;18.40;85.20;;;;;;5017227;28;20588;-71
2023/08/27 02:37:22;;;;;;;21.50;11.57;;;18.40;85.20;;;;;;5029629;28;20180;-71
2023/08/27 02:39:48;;;;;;;19.63;11.13;;;18.40;85.00;;;;;;5028371;28;20228;-72
2023/08/27 02:42:13;;;;;;;20.80;10.90;;;18.30;85.00;;;;;;5011073;28;20201;-71
2023/08/27 02:44:39;;;;;;;19.83;10.60;;;18.40;85.00;;;;;;5019442;28;20191;-71
2023/08/27 02:47:04;;;;;;;16.10;10.60;;;18.40;85.00;;;;;;5019882;28;20230;-71
2023/08/27 02:49:30;;;;;;;15.57;10.77;;;18.50;84.70;;;;;;5012501;28;20714;-72
2023/08/27 02:51:56;;;;;;;17.07;9.70;;;18.40;84.70;;;;;;5004748;28;20255;-72
2023/08/27 02:54:21;;;;;;;14.03;9.73;;;18.40;84.70;;;;;;5015189;28;20179;-73
2023/08/27 02:56:47;;;;;;;13.50;8.13;;;18.50;84.70;;;;;;5012272;28;20239;-72
2023/08/27 02:59:13;;;;;;;16.13;10.43;;;18.40;84.70;;;;;;5019716;28;20246;-71
2023/08/27 03:01:38;;;;;;;13.90;9.33;;;18.40;84.70;;;;;;5003894;28;20681;-72
2023/08/27 03:04:04;;;;;;;21.00;10.27;;;18.30;85.00;;;;;;5010219;28;20185;-72
2023/08/27 03:06:29;;;;;;;14.87;9.87;;;18.30;85.00;;;;;;5012393;28;20206;-73
2023/08/27 03:08:55;;;;;;;19.00;9.60;;;18.30;85.50;;;;;;5018271;28;20603;-71
2023/08/27 03:11:20;;;;;;;18.43;9.57;;;18.30;85.30;;;;;;5008157;28;20233;-71
2023/08/27 03:13:48;;;;;;;15.50;9.97;;;18.40;84.90;;;;;;5015780;28;20215;-73
2023/08/27 03:16:14;;;;;;;15.47;10.27;;;18.50;84.60;;;;;;5019512;28;20262;-73
2023/08/27 03:18:40;;;;;;;16.10;9.10;;;18.40;84.60;;;;;;5030554;28;20997;-72
2023/08/27 03:21:05;;;;;;;15.77;10.03;;;18.30;84.90;;;;;;5015304;28;20305;-73
2023/08/27 03:23:34;;;;;;;15.20;9.73;;;18.20;85.30;;;;;;5014927;28;20209;-72
2023/08/27 03:25:59;;;;;;;16.73;9.70;;;18.20;85.90;;;;;;5011683;28;20215;-72
2023/08/27 03:28:25;;;;;;;15.43;9.33;;;18.20;86.30;;;;;;5009240;28;20449;-72
2023/08/27 03:30:51;;;;;;;15.20;9.30;;;18.10;86.60;;;;;;5003061;28;20315;-72
2023/08/27 03:33:16;;;;;;;15.03;9.83;;;18.10;86.90;;;;;;5009480;28;20612;-72
2023/08/27 03:35:54;;;;;;;15.00;9.73;;;18.10;86.50;;;;;;5015022;28;20674;-72
2023/08/27 03:38:20;;;;;;;15.60;9.20;;;18.10;86.30;;;;;;5026938;23;20176;-70
2023/08/27 03:40:50;;;;;;;16.97;9.90;;;18.00;86.50;;;;;;5008656;28;20535;-69
2023/08/27 03:43:16;;;;;;;16.63;9.87;;;17.90;86.60;;;;;;5010863;28;20234;-70
2023/08/27 03:45:42;;;;;;;18.17;11.10;;;17.90;86.80;;;;;;5013444;28;21854;-69
2023/08/27 03:48:07;;;;;;;18.10;11.90;;;17.80;87.10;;;;;;5016788;28;20441;-71
2023/08/27 03:50:34;;;;;;;23.37;13.13;;;17.70;87.40;;;;;;5012439;28;20214;-70
2023/08/27 03:53:00;;;;;;;18.27;10.63;;;17.60;88.10;;;;;;5011390;28;20194;-69
2023/08/27 03:55:26;;;;;;;20.77;12.20;;;17.70;88.30;;;;;;5014668;28;20433;-71
2023/08/27 03:57:51;;;;;;;17.60;11.03;;;17.70;88.30;;;;;;5017490;28;20184;-72
2023/08/27 04:00:17;;;;;;;21.27;11.80;;;17.80;88.00;;;;;;5011058;28;20723;-72
2023/08/27 04:02:44;;;;;;;14.67;9.90;;;17.70;88.00;;;;;;5011413;28;20196;-72
2023/08/27 04:05:10;;;;;;;17.77;9.67;;;17.80;88.30;;;;;;5014833;28;20545;-72
2023/08/27 04:07:36;;;;;;;20.53;11.10;;;17.90;88.40;;;;;;5019909;28;20479;-71
2023/08/27 04:10:04;;;;;;;16.13;11.10;;;17.80;88.10;;;;;;5010279;28;20444;-72
2023/08/27 04:12:33;;;;;;;17.73;11.03;;;17.90;88.00;;;;;;5008595;28;20393;-70
2023/08/27 04:14:58;;;;;;;20.10;11.00;;;17.90;88.00;;;;;;5007681;28;20474;-71
2023/08/27 04:17:24;;;;;;;18.30;11.37;;;17.80;87.70;;;;;;5014240;28;20519;-71
2023/08/27 04:19:50;;;;;;;19.60;10.33;;;17.90;87.70;;;;;;5014221;28;20753;-71
2023/08/27 04:22:15;;;;;;;17.43;10.47;;;17.80;87.80;;;;;;5008577;28;20203;-70
2023/08/27 04:24:44;;;;;;;18.03;10.90;;;17.80;88.00;;;;;;5012986;28;20222;-70
2023/08/27 04:27:10;;;;;;;19.20;10.80;;;17.70;88.30;;;;;;5013246;28;20758;-70
2023/08/27 04:29:36;;;;;;;16.47;10.53;;;17.70;88.40;;;;;;5011350;28;20513;-72
2023/08/27 04:32:03;;;;;;;19.60;11.73;;;17.70;88.70;;;;;;5005206;28;20987;-71
2023/08/27 04:34:28;;;;;;;16.97;10.57;;;17.60;89.00;;;;;;5019856;28;20425;-70
2023/08/27 04:36:56;;;;;;;18.90;11.27;;;17.50;89.50;;;;;;5017639;28;20431;-71
2023/08/27 04:39:22;;;;;;;18.93;11.67;;;17.60;89.70;;;;;;5017468;28;20219;-72
2023/08/27 04:41:48;;;;;;;15.33;9.63;;;17.60;89.90;;;;;;5012046;28;20462;-70
2023/08/27 04:44:14;;;;;;;15.60;9.70;;;17.60;90.00;;;;;;5016370;28;20426;-72
2023/08/27 04:46:39;;;;;;;17.30;9.73;;;17.70;90.00;;;;;;5011193;28;20215;-71
2023/08/27 04:49:05;;;;;;;14.23;9.40;;;17.80;90.00;;;;;;5020369;28;20986;-69
2023/08/27 04:51:31;;;;;;;13.17;9.30;;;17.80;90.00;;;;;;5012437;28;20241;-71
2023/08/27 04:53:56;;;;;;;16.17;9.40;;;17.80;89.90;;;;;;5007769;28;20192;-72
2023/08/27 04:56:22;;;;;;;18.07;9.53;;;17.80;89.60;;;;;;5011502;28;20174;-70
2023/08/27 04:58:47;;;;;;;14.00;8.90;;;17.80;89.00;;;;;;5017999;28;20182;-70
2023/08/27 05:01:13;;;;;;;13.63;8.73;;;17.70;88.90;;;;;;5009164;28;20357;-72
2023/08/27 05:03:39;;;;;;;12.07;8.17;;;17.80;89.30;;;;;;5009839;28;20664;-71
2023/08/27 05:06:04;;;;;;;11.83;7.10;;;17.70;88.00;;;;;;5015127;28;20291;-69
2023/08/27 05:08:30;;;;;;;11.10;7.50;;;17.60;88.00;;;;;;5005723;28;20243;-71
2023/08/27 05:10:55;;;;;;;12.83;7.70;;;17.50;88.10;;;;;;5010214;28;20761;-73
2023/08/27 05:13:21;;;;;;;15.13;7.83;;;17.50;88.40;;;;;;5003434;28;20197;-73
2023/08/27 05:15:46;;;;;;;9.97;6.07;;;17.60;88.70;;;;;;5015345;28;20260;-71
2023/08/27 05:18:12;;;;;;;8.40;5.40;;;17.60;88.60;;;;;;5010119;28;20216;-72
2023/08/27 05:20:38;;;;;;;8.70;5.17;;;17.60;88.30;;;;;;5014648;28;20263;-67
2023/08/27 05:23:04;;;;;;;10.87;5.33;;;17.60;88.30;;;;;;5009804;28;20186;-71
2023/08/27 05:25:30;;;;;;;8.77;5.33;;;17.70;87.80;;;;;;5012430;28;20189;-71
2023/08/27 05:27:55;;;;;;;7.70;5.60;;;17.60;87.70;;;;;;5007889;28;20435;-70
2023/08/27 05:30:21;;;;;;;10.27;5.60;;;17.50;87.80;;;;;;5015869;28;20218;-70
2023/08/27 05:32:47;;;;;;;7.80;5.67;;;17.50;88.00;;;;;;5013163;28;20268;-71
2023/08/27 05:35:12;;;;;;;8.70;6.33;;;17.50;88.10;;;;;;5020041;28;20187;-70
2023/08/27 05:37:38;;;;;;;9.27;5.23;;;17.60;88.40;;;;;;5009071;28;20184;-72
2023/08/27 05:40:05;;;;;;;7.83;5.20;;;17.60;88.40;;;;;;5019298;28;20205;-69
2023/08/27 05:42:32;;;;;;;7.43;5.13;;;17.60;88.00;;;;;;5002333;28;20448;-71
2023/08/27 05:44:58;;;;;;;8.70;6.00;;;17.50;88.10;;;;;;5007253;28;20967;-71
2023/08/27 05:47:24;;;;;;;11.57;5.47;;;17.50;88.30;;;;;;5013011;28;21024;-70
2023/08/27 05:49:49;;;;;;;8.33;5.70;;;17.60;88.30;;;;;;5020901;28;20452;-72
2023/08/27 05:52:15;;;;;;;10.53;5.77;;;17.60;88.10;;;;;;5008286;28;20282;-71
2023/08/27 05:54:40;;;;;;;8.23;5.00;;;17.60;88.10;;;;;;5015703;28;20273;-71
2023/08/27 05:57:06;;;;;;;8.07;5.50;;;17.70;87.70;;;;;;5002053;28;20238;-69
2023/08/27 05:59:32;;;;;;;16.23;6.60;;;17.70;87.10;;;;;;5010891;28;20236;-73
2023/08/27 06:01:59;;;;;;;14.80;5.70;;;17.70;87.00;;;;;;5002522;28;20212;-72
2023/08/27 06:04:24;;;;;;;9.90;5.27;;;17.70;87.30;;;;;;5010182;28;20225;-69
2023/08/27 06:06:50;;;;;;;8.40;4.90;;;17.60;87.30;;;;;;5023044;28;20483;-73
2023/08/27 06:09:16;;;;;;;7.60;5.33;;;17.60;87.40;;;;;;5021748;28;20193;-73
2023/08/27 06:11:42;;;;;;;8.00;5.90;;;17.70;87.30;;;;;;5005443;28;20297;-71
2023/08/27 06:14:08;;;;;;;7.20;5.23;;;17.70;87.30;;;;;;5011662;28;20487;-71
2023/08/27 06:16:34;;;;;;;7.20;4.63;;;17.80;87.40;;;;;;5016640;28;20186;-69
2023/08/27 06:19:00;;;;;;;7.50;4.80;;;17.90;87.40;;;;;;5018155;28;20273;-72
2023/08/27 06:21:25;;;;;;;6.90;4.80;;;17.80;87.10;;;;;;5008373;28;20994;-70
2023/08/27 06:23:51;;;;;;;6.83;4.87;;;17.90;87.00;;;;;;5015142;28;20527;-72
2023/08/27 06:26:17;;;;;;;5.67;4.07;;;18.00;87.10;;;;;;5013677;28;20620;-70
2023/08/27 06:28:42;;;;;;;8.40;5.17;;;18.10;86.60;;;;;;5011403;28;20925;-72
2023/08/27 06:31:08;;;;;;;6.67;3.73;;;18.20;86.30;;;;;;5017910;28;20218;-70
2023/08/27 06:33:33;;;;;;;7.33;4.50;;;18.30;86.20;;;;;;5013210;28;20203;-71
2023/08/27 06:35:59;;;;;;;6.13;3.57;;;18.40;85.70;;;;;;5014796;28;20184;-71
2023/08/27 06:38:25;;;;;;;6.40;4.37;;;18.40;85.50;;;;;;5020325;28;20469;-70
2023/08/27 06:40:50;;;;;;;6.33;4.30;;;18.50;85.00;;;;;;5012955;28;20243;-71
2023/08/27 06:43:16;;;;;;;11.97;4.77;;;18.60;84.30;;;;;;5011941;28;20660;-72
2023/08/27 06:45:41;;;;;;;5.67;3.33;;;18.60;83.70;;;;;;5016396;28;20197;-72
2023/08/27 06:48:08;;;;;;;3.77;2.67;;;18.60;83.80;;;;;;5007298;28;20202;-70
2023/08/27 06:50:34;;;;;;;4.40;3.30;;;18.60;83.30;;;;;;5017665;28;20321;-72
2023/08/27 06:53:00;;;;;;;4.70;2.60;;;18.50;83.40;;;;;;5013768;28;20420;-72
2023/08/27 06:55:26;;;;;;;4.63;2.83;;;18.50;83.40;;;;;;5013422;28;21133;-70
2023/08/27 06:57:51;;;;;;;4.83;2.90;;;18.50;83.40;;;;;;5017414;28;20215;-73
2023/08/27 07:00:17;;;;;;;4.20;2.93;;;18.50;83.10;;;;;;5015096;28;20360;-70
2023/08/27 07:02:44;;;;;;;6.33;3.60;;;18.50;83.40;;;;;;5015954;28;20193;-74
2023/08/27 07:05:09;;;;;;;5.10;3.37;;;18.50;83.40;;;;;;5013371;28;20617;-72
2023/08/27 07:07:38;;;;;;;4.70;3.00;;;18.40;83.40;;;;;;5023001;28;20473;-73
2023/08/27 07:10:08;;;;;;;4.00;3.00;;;18.50;83.60;;;;;;5010018;28;20219;-72
2023/08/27 07:12:35;;;;;;;4.20;3.10;;;18.50;83.70;;;;;;5012667;28;20468;-73
2023/08/27 07:15:02;;;;;;;5.30;3.47;;;18.60;83.80;;;;;;5014027;28;20464;-71
2023/08/27 07:17:28;;;;;;;4.67;2.73;;;18.70;83.60;;;;;;5019746;28;20429;-70
2023/08/27 07:19:54;;;;;;;6.33;2.87;;;18.70;83.70;;;;;;5017418;28;20955;-73
2023/08/27 07:22:20;;;;;;;4.63;2.60;;;18.80;83.10;;;;;;5011244;28;20812;-72
2023/08/27 07:24:46;;;;;;;3.30;2.80;;;19.00;82.70;;;;;;5017892;28;20413;-71
2023/08/27 07:27:11;;;;;;;7.53;3.50;;;19.10;82.50;;;;;;5022553;28;20296;-72
2023/08/27 07:29:38;;;;;;;5.30;3.07;;;19.20;82.20;;;;;;5007810;28;20191;-71
2023/08/27 07:32:04;;;;;;;5.60;3.30;;;19.20;81.10;;;;;;5012729;28;20711;-72
2023/08/27 07:34:30;;;;;;;4.77;3.10;;;19.30;80.60;;;;;;5015467;28;20408;-72
2023/08/27 07:36:56;;;;;;;4.17;2.90;;;19.30;79.90;;;;;;5012137;28;20974;-71
2023/08/27 07:39:23;;;;;;;4.37;3.10;;;19.20;79.90;;;;;;5006987;28;21163;-73
2023/08/27 07:41:50;;;;;;;5.90;2.90;;;19.20;79.90;;;;;;5009835;28;20491;-72
2023/08/27 07:44:16;;;;;;;4.07;2.90;;;19.20;79.00;;;;;;5012012;28;20209;-73
2023/08/27 07:46:42;;;;;;;3.80;2.60;;;19.20;79.60;;;;;;5016515;28;20573;-73
2023/08/27 07:49:09;;;;;;;6.50;2.77;;;19.10;79.70;;;;;;5002578;28;20429;-72
2023/08/27 07:51:35;;;;;;;4.23;3.20;;;18.90;79.70;;;;;;5017483;28;20240;-73
2023/08/27 07:54:00;;;;;;;3.50;2.63;;;18.90;80.30;;;;;;5010904;28;20499;-73
2023/08/27 07:56:26;;;;;;;4.40;2.50;;;18.90;80.60;;;;;;5012236;28;20481;-72
2023/08/27 07:58:52;;;;;;;3.50;2.53;;;18.90;80.50;;;;;;5011789;28;20188;-72
2023/08/27 08:01:18;;;;;;;5.57;2.90;;;18.80;80.30;;;;;;5011642;28;20210;-71
2023/08/27 08:03:43;;;;;;;3.33;2.23;;;18.70;81.10;;;;;;5012168;28;20513;-73
2023/08/27 08:06:09;;;;;;;5.30;2.80;;;18.70;81.50;;;;;;5015536;28;20473;-73
2023/08/27 08:08:35;;;;;;;4.43;3.03;;;18.60;81.40;;;;;;5018018;28;20179;-72
2023/08/27 08:11:01;;;;;;;4.80;2.90;;;18.60;81.80;;;;;;5013151;28;20223;-70
2023/08/27 08:13:27;;;;;;;3.80;2.87;;;18.60;81.70;;;;;;5013034;28;20195;-73
2023/08/27 08:15:52;;;;;;;3.97;2.50;;;18.70;81.50;;;;;;5011461;28;20504;-73
2023/08/27 08:18:18;;;;;;;4.10;2.63;;;18.80;81.20;;;;;;5012740;28;20421;-74
2023/08/27 08:20:44;;;;;;;3.20;2.27;;;18.80;80.30;;;;;;5011072;28;20198;-72
2023/08/27 08:23:10;;;;;;;4.60;2.50;;;18.80;80.80;;;;;;5013196;28;20223;-70
2023/08/27 08:25:37;;;;;;;3.30;2.30;;;18.80;80.30;;;;;;5007141;28;20423;-72
2023/08/27 08:28:03;;;;;;;5.07;2.53;;;18.80;80.60;;;;;;5009373;28;20781;-72
2023/08/27 08:30:29;;;;;;;3.83;2.20;;;18.80;80.00;;;;;;5008088;28;20516;-70
2023/08/27 08:32:55;;;;;;;2.30;1.90;;;18.80;80.20;;;;;;5008000;28;20439;-73
2023/08/27 08:35:21;;;;;;;3.57;1.87;;;18.90;79.50;;;;;;5018490;28;20189;-72
2023/08/27 08:37:46;;;;;;;3.37;2.27;;;19.00;79.50;;;;;;5018293;28;20197;-72
2023/08/27 08:40:14;;;;;;;3.03;2.07;;;19.10;79.00;;;;;;5011148;28;20203;-70
2023/08/27 08:42:59;;;;;;;4.20;1.83;;;19.00;79.00;;;;;;5011773;28;20260;-73
2023/08/27 08:45:51;;;;;;;3.73;2.17;;;19.20;78.90;;;;;;5020730;28;20754;-72
2023/08/27 08:48:22;;;;;;;3.30;1.87;;;19.20;78.70;;;;;;5021596;28;20440;-73
2023/08/27 08:50:52;;;;;;;3.13;2.10;;;19.30;78.30;;;;;;5010746;28;20461;-70
2023/08/27 08:53:19;;;;;;;2.50;1.80;;;19.40;78.30;;;;;;5008994;28;20425;-70
2023/08/27 08:55:52;;;;;;;3.90;2.13;;;19.50;77.10;;;;;;5015581;28;20423;-71
2023/08/27 08:58:19;;;;;;;3.90;2.60;;;19.50;77.40;;;;;;5016918;28;20464;-73
2023/08/27 09:00:45;;;;;;;4.07;1.90;;;19.50;77.60;;;;;;5011851;28;20452;-70
2023/08/27 09:03:14;;;;;;;3.60;2.33;;;19.60;77.80;;;;;;5012040;28;20425;-72
2023/08/27 09:05:40;;;;;;;4.87;1.90;;;19.60;78.10;;;;;;5019624;28;20861;-70
2023/08/27 09:08:09;;;;;;;3.60;2.00;;;19.70;77.40;;;;;;5018656;28;20523;-71
2023/08/27 09:10:35;;;;;;;2.20;1.87;;;19.60;76.50;;;;;;5013082;28;20232;-70
2023/08/27 09:13:05;;;;;;;5.50;2.20;;;19.50;77.60;;;;;;5013370;28;20432;-70
2023/08/27 09:15:30;;;;;;;3.67;2.23;;;19.60;77.40;;;;;;5014533;28;20197;-72
2023/08/27 09:17:56;;;;;;;2.30;1.63;;;19.70;77.10;;;;;;5009278;28;21052;-72
2023/08/27 09:20:24;;;;;;;3.37;2.03;;;19.70;77.10;;;;;;5007225;28;20212;-71
2023/08/27 09:22:50;;;;;;;3.00;2.10;;;19.60;77.70;;;;;;5011566;28;20200;-69
2023/08/27 09:25:16;;;;;;;2.87;1.80;;;19.60;77.30;;;;;;5015207;28;20417;-70
2023/08/27 09:27:42;;;;;;;2.80;1.93;;;19.60;77.40;;;;;;5012458;28;20211;-71
2023/08/27 09:30:09;;;;;;;3.73;1.90;;;19.70;76.50;;;;;;5019973;28;20284;-73
2023/08/27 09:32:34;;;;;;;3.13;2.20;;;19.80;76.50;;;;;;5010092;28;20810;-72
2023/08/27 09:35:04;;;;;;;3.37;2.10;;;19.90;77.10;;;;;;5018199;28;20566;-72
2023/08/27 09:37:43;;;;;;;3.93;2.13;;;20.10;76.50;;;;;;5007193;28;20560;-71
2023/08/27 09:40:10;;;;;;;3.13;2.20;;;20.30;74.80;;;;;;5003501;28;20451;-69
2023/08/27 09:42:37;;;;;;;3.63;2.03;;;20.50;74.60;;;;;;5010102;28;20437;-73
2023/08/27 09:45:04;;;;;;;3.13;1.93;;;20.40;74.00;;;;;;5005845;28;20511;-72
2023/08/27 09:47:35;;;;;;;3.37;2.00;;;20.50;74.50;;;;;;5010536;28;20564;-72
2023/08/27 09:50:15;;;;;;;2.93;1.93;;;20.70;74.60;;;;;;5006111;28;20476;-69
2023/08/27 09:52:42;;;;;;;2.70;1.93;;;20.80;72.60;;;;;;5019129;28;20432;-72
2023/08/27 09:55:18;;;;;;;3.60;2.13;;;20.80;73.20;;;;;;5015168;28;20441;-72
2023/08/27 09:57:50;;;;;;;4.50;2.40;;;20.90;73.20;;;;;;5022665;28;20432;-72
2023/08/27 10:00:18;;;;;;;2.80;1.60;;;20.90;72.70;;;;;;5013158;28;20522;-72
2023/08/27 10:02:44;;;;;;;3.90;2.33;;;20.80;72.70;;;;;;5021758;28;20503;-73
2023/08/27 10:05:10;;;;;;;3.63;2.00;;;20.60;73.50;;;;;;5018681;28;20963;-71
2023/08/27 10:07:35;;;;;;;5.63;2.30;;;20.60;73.50;;;;;;5015564;28;20219;-72
2023/08/27 10:10:03;;;;;;;3.87;2.00;;;20.50;73.60;;;;;;5014567;28;20798;-73
2023/08/27 10:12:29;;;;;;;3.47;2.13;;;20.40;74.00;;;;;;5013119;28;20198;-72
2023/08/27 10:14:56;;;;;;;3.93;2.10;;;20.30;74.30;;;;;;5013837;28;20542;-74
2023/08/27 10:17:24;;;;;;;5.70;2.70;;;20.40;74.60;;;;;;5017435;28;20573;-74
2023/08/27 10:19:50;;;;;;;3.33;2.60;;;20.70;74.80;;;;;;5011976;28;20802;-74
2023/08/27 10:22:16;;;;;;;3.93;2.03;;;20.80;73.50;;;;;;5011000;28;20458;-74
2023/08/27 10:24:45;;;;;;;4.40;2.63;;;21.10;72.00;;;;;;5011552;28;20436;-73
2023/08/27 10:27:11;;;;;;;3.43;1.90;;;21.30;71.70;;;;;;5013952;28;20500;-72
2023/08/27 10:29:37;;;;;;;3.80;2.40;;;21.40;71.40;;;;;;5012765;28;20417;-72
2023/08/27 10:32:03;;;;;;;2.83;1.97;;;21.60;70.70;;;;;;5007342;28;20204;-72
2023/08/27 10:34:30;;;;;;;5.50;1.90;;;21.70;70.40;;;;;;5013708;28;20434;-72
2023/08/27 10:37:01;;;;;;;6.53;2.60;;;21.90;69.40;;;;;;5020078;28;20427;-73
2023/08/27 10:39:30;;;;;;;3.87;1.83;;;22.10;67.90;;;;;;5014418;28;20614;-75
2023/08/27 10:41:56;;;;;;;3.20;2.13;;;22.20;66.60;;;;;;5007490;28;20638;-75
2023/08/27 10:44:22;;;;;;;5.03;2.10;;;21.60;67.30;;;;;;5008682;28;20485;-73
2023/08/27 10:47:17;;;;;;;3.30;2.50;;;21.50;68.60;;;;;;5015398;28;20470;-75
2023/08/27 10:49:47;;;;;;;4.40;2.40;;;21.50;68.60;;;;;;5014995;28;20582;-75
2023/08/27 10:52:26;;;;;;;7.57;2.20;;;21.30;68.00;;;;;;5015041;28;20982;-73
2023/08/27 10:55:02;;;;;;;4.20;2.03;;;21.30;68.20;;;;;;5015022;28;20801;-73
2023/08/27 10:57:27;;;;;;;4.50;2.90;;;21.60;66.90;;;;;;5019110;28;20420;-72
2023/08/27 11:00:10;;;;;;;3.30;2.47;;;21.80;67.30;;;;;;5022687;28;20956;-72
2023/08/27 11:03:14;;;;;;;5.50;3.20;;;21.80;66.60;;;;;;5017732;28;20534;-73
2023/08/27 11:05:40;;;;;;;7.80;3.97;;;21.70;67.50;;;;;;4952683;29;20443;-73
2023/08/27 11:08:16;;;;;;;6.20;4.07;;;21.80;67.30;;;;;;4952053;29;20421;-73
2023/08/27 11:10:45;;;;;;;4.33;2.80;;;21.90;67.30;;;;;;4950300;29;20560;-72
2023/08/27 11:13:38;;;;;;;3.30;2.70;;;21.90;67.00;;;;;;4945437;29;20426;-74
2023/08/27 11:16:14;;;;;;;5.50;2.10;;;22.10;66.70;;;;;;4953098;29;20434;-72
2023/08/27 11:18:53;;;;;;;2.97;2.00;;;22.00;66.30;;;;;;4951497;29;20431;-72
2023/08/27 11:21:27;;;;;;;4.90;2.40;;;21.90;66.60;;;;;;4948039;29;20765;-72
2023/08/27 11:24:15;;;;;;;3.00;2.33;;;22.00;66.10;;;;;;4947037;29;20418;-74
2023/08/27 11:26:41;;;;;;;2.80;1.90;;;21.90;65.60;;;;;;4951333;29;20505;-72
2023/08/27 11:29:10;;;;;;;5.13;3.03;;;21.60;66.40;;;;;;4952553;29;20431;-72
2023/08/27 11:31:44;;;;;;;4.03;2.93;;;21.50;66.90;;;;;;4949495;29;20461;-74
2023/08/27 11:34:12;;;;;;;3.43;2.13;;;21.60;66.30;;;;;;4944490;29;20510;-73
2023/08/27 11:36:45;;;;;;;4.23;2.20;;;21.80;66.10;;;;;;4952777;29;20418;-73
2023/08/27 11:39:13;;;;;;;5.17;2.70;;;21.80;64.80;;;;;;4934780;29;20464;-70
2023/08/27 11:41:43;;;;;;;5.67;2.70;;;21.70;65.80;;;;;;4987580;28;20473;-72
2023/08/27 11:44:13;;;;;;;7.53;2.70;;;21.80;66.00;;;;;;5011602;28;21190;-72
2023/08/27 11:46:44;;;;;;;4.27;2.30;;;22.10;66.00;;;;;;5019410;28;20475;-72
2023/08/27 11:49:12;;;;;;;3.20;2.60;;;22.10;64.70;;;;;;5012631;28;20424;-74
2023/08/27 11:51:43;;;;;;;3.63;2.83;;;21.90;65.00;;;;;;5011431;28;20553;-74
2023/08/27 11:54:10;;;;;;;3.70;2.40;;;21.90;65.00;;;;;;5016360;28;20454;-74
2023/08/27 11:56:37;;;;;;;6.10;3.30;;;21.90;65.00;;;;;;5023778;28;20428;-73
2023/08/27 11:59:06;;;;;;;3.80;2.73;;;22.00;65.00;;;;;;5027972;28;20428;-73
2023/08/27 12:01:32;;;;;;;3.40;2.40;;;22.10;65.10;;;;;;5014539;28;21016;-75
2023/08/27 12:03:58;;;;;;;4.97;2.40;;;22.20;63.50;;;;;;5022370;28;20419;-74
2023/08/27 12:06:24;;;;;;;3.27;2.30;;;22.20;63.90;;;;;;5013708;28;20491;-75
2023/08/27 12:08:55;;;;;;;4.93;2.40;;;22.20;63.80;;;;;;5016908;28;20807;-74
2023/08/27 12:11:25;;;;;;;6.27;2.57;;;22.20;63.10;;;;;;5007232;28;20517;-76
2023/08/27 12:13:54;;;;;;;4.10;2.23;;;22.20;63.20;;;;;;5020764;28;20414;-74
2023/08/27 12:16:34;;;;;;;8.23;3.17;;;22.30;63.80;;;;;;5020042;28;21020;-73
2023/08/27 12:19:08;;;;;;;5.03;2.70;;;22.40;63.80;;;;;;5017308;28;20414;-75
2023/08/27 12:21:45;;;;;;;6.50;2.50;;;22.50;63.80;;;;;;5008579;28;20459;-74
2023/08/27 12:24:35;;;;;;;4.63;2.57;;;22.20;63.70;;;;;;5014334;28;20412;-75
2023/08/27 12:27:06;;;;;;;4.40;2.67;;;22.20;64.10;;;;;;5015489;28;20479;-75
2023/08/27 12:29:35;;;;;;;3.03;2.30;;;22.20;64.20;;;;;;5017578;28;20438;-76
2023/08/27 12:32:11;;;;;;;4.67;2.50;;;22.30;64.10;;;;;;5009633;28;20488;-75
2023/08/27 12:34:43;;;;;;;3.20;2.80;;;22.60;63.40;;;;;;5012907;28;20440;-73
2023/08/27 12:37:10;;;;;;;3.60;2.70;;;22.60;63.40;;;;;;5006821;28;20825;-75
2023/08/27 12:39:39;;;;;;;5.57;3.30;;;22.40;64.40;;;;;;5012164;28;20464;-74
2023/08/27 12:42:07;;;;;;;3.57;2.93;;;22.20;64.80;;;;;;5010601;28;20503;-73
2023/08/27 12:44:36;;;;;;;3.47;2.43;;;22.50;65.10;;;;;;5020339;28;20612;-74